Time;durP1;ratioP1;P1;durP2;ratioP2;P2;SDS_P1;SDS_P2;PMS_P1;PMS_P2;Temp;Humidity;BMP_temperature;BMP_pressure;BME280_temperature;BME280_humidity;BME280_pressure;Samples;Min_cycle;Max_cycle;Signal;HPM_P1;HPM_P2
2022/01/16 00:00:48;;;;;;;14.85;11.77;;;;;;;;;;5015531;28;20664;-77
2022/01/16 00:05:57;;;;;;;13.90;11.95;;;;;;;;;;5014221;28;20705;-77
2022/01/16 00:08:25;;;;;;;17.10;12.05;;;;;;;;;;5010485;28;20232;-77
2022/01/16 00:10:52;;;;;;;21.23;13.98;;;;;;;;;;5010861;28;20203;-77
2022/01/16 00:13:19;;;;;;;17.20;12.43;;;;;;;;;;5011185;28;20204;-76
2022/01/16 00:15:46;;;;;;;17.63;12.43;;;;;;;;;;5013043;28;20192;-76
2022/01/16 00:18:21;;;;;;;18.05;12.98;;;;;;;;;;5011479;28;20228;-77
2022/01/16 00:20:48;;;;;;;21.55;13.52;;;;;;;;;;5012198;28;20677;-76
2022/01/16 00:23:23;;;;;;;20.42;13.50;;;;;;;;;;5008930;28;20211;-76
2022/01/16 00:25:51;;;;;;;18.95;12.52;;;;;;;;;;5007916;28;20214;-75
2022/01/16 00:28:18;;;;;;;20.60;12.40;;;;;;;;;;5009942;28;20673;-75
2022/01/16 00:30:45;;;;;;;16.70;11.90;;;;;;;;;;5010583;28;20215;-76
2022/01/16 00:33:12;;;;;;;17.88;12.27;;;;;;;;;;5011017;28;20688;-76
2022/01/16 00:35:39;;;;;;;19.00;13.00;;;;;;;;;;5011974;28;20566;-76
2022/01/16 00:38:07;;;;;;;18.67;12.35;;;;;;;;;;5012947;28;20254;-77
2022/01/16 00:40:35;;;;;;;24.45;13.35;;;;;;;;;;4991921;28;20192;-75
2022/01/16 00:43:03;;;;;;;15.73;12.15;;;;;;;;;;5010928;28;20656;-75
2022/01/16 00:45:33;;;;;;;18.10;11.82;;;;;;;;;;5011180;28;20196;-75
2022/01/16 00:48:01;;;;;;;17.05;11.70;;;;;;;;;;5010884;28;20327;-76
2022/01/16 00:50:28;;;;;;;14.38;11.02;;;;;;;;;;5011997;28;20200;-77
2022/01/16 00:52:55;;;;;;;14.55;11.20;;;;;;;;;;5011470;28;20208;-76
2022/01/16 00:55:22;;;;;;;15.05;10.82;;;;;;;;;;5009986;28;20196;-77
2022/01/16 00:57:51;;;;;;;16.17;10.85;;;;;;;;;;5010060;28;20685;-75
2022/01/16 01:00:18;;;;;;;11.95;8.90;;;;;;;;;;5010661;28;20502;-77
2022/01/16 01:02:45;;;;;;;14.95;9.35;;;;;;;;;;5011920;28;20574;-78
2022/01/16 01:05:12;;;;;;;14.50;10.73;;;;;;;;;;5011028;28;20675;-78
2022/01/16 01:07:40;;;;;;;13.40;9.38;;;;;;;;;;5008971;28;20689;-77
2022/01/16 01:10:09;;;;;;;12.32;9.07;;;;;;;;;;5010800;28;20546;-76
2022/01/16 01:12:52;;;;;;;14.50;10.00;;;;;;;;;;4992584;28;20195;-79
2022/01/16 01:15:21;;;;;;;13.55;9.38;;;;;;;;;;4993135;28;20257;-79
2022/01/16 01:17:49;;;;;;;13.93;8.55;;;;;;;;;;5010016;28;20587;-76
2022/01/16 01:20:18;;;;;;;16.40;10.40;;;;;;;;;;5011812;28;20204;-77
2022/01/16 01:22:46;;;;;;;15.32;10.13;;;;;;;;;;5011840;28;20243;-78
2022/01/16 01:25:14;;;;;;;15.65;11.05;;;;;;;;;;5010189;28;20204;-76
2022/01/16 01:27:46;;;;;;;17.65;10.85;;;;;;;;;;5006557;28;20224;-78
2022/01/16 01:30:14;;;;;;;17.85;10.82;;;;;;;;;;5007314;28;20255;-79
2022/01/16 01:32:44;;;;;;;14.13;10.50;;;;;;;;;;5011346;28;20211;-78
2022/01/16 01:35:12;;;;;;;13.55;10.75;;;;;;;;;;4994039;28;20692;-75
2022/01/16 01:37:40;;;;;;;19.58;12.18;;;;;;;;;;5010870;28;20235;-76
2022/01/16 01:40:09;;;;;;;15.52;10.45;;;;;;;;;;5010153;28;20568;-80
2022/01/16 01:42:43;;;;;;;17.27;12.30;;;;;;;;;;4991717;28;20201;-78
2022/01/16 01:53:16;;;;;;;15.63;10.23;;;;;;;;;;5007434;28;20203;-76
2022/01/16 01:55:44;;;;;;;13.82;10.15;;;;;;;;;;4991263;28;20204;-76
2022/01/16 01:58:14;;;;;;;13.93;9.65;;;;;;;;;;5010151;28;20227;-78
2022/01/16 02:00:42;;;;;;;13.63;9.45;;;;;;;;;;5011650;28;20258;-76
2022/01/16 02:03:16;;;;;;;13.32;9.23;;;;;;;;;;5010451;28;20211;-76
2022/01/16 02:05:43;;;;;;;17.90;10.30;;;;;;;;;;4990541;28;20216;-76
2022/01/16 02:08:10;;;;;;;13.02;8.85;;;;;;;;;;4992162;28;20232;-78
2022/01/16 02:10:38;;;;;;;15.43;10.13;;;;;;;;;;4976024;28;20216;-78
2022/01/16 02:13:09;;;;;;;16.50;10.50;;;;;;;;;;5006228;28;20200;-77
2022/01/16 02:27:56;;;;;;;14.88;10.65;;;;;;;;;;5008028;28;20254;-79
2022/01/16 02:29:52;;;;;;;15.00;9.65;;;;;;;;;;5008329;28;20309;-76
2022/01/16 02:34:56;;;;;;;15.38;9.48;;;;;;;;;;4994950;28;20206;-76
2022/01/16 02:37:24;;;;;;;14.82;9.70;;;;;;;;;;5009510;28;20758;-76
2022/01/16 02:40:00;;;;;;;12.05;9.07;;;;;;;;;;5009385;28;20200;-80
2022/01/16 02:42:29;;;;;;;12.02;8.82;;;;;;;;;;5010104;28;20684;-76
2022/01/16 02:45:03;;;;;;;15.57;9.30;;;;;;;;;;5010476;28;20716;-75
2022/01/16 02:47:30;;;;;;;15.38;9.73;;;;;;;;;;5007297;28;20569;-75
2022/01/16 02:49:57;;;;;;;14.82;9.85;;;;;;;;;;5009563;28;20224;-78
2022/01/16 02:52:24;;;;;;;15.75;9.77;;;;;;;;;;5008240;28;20207;-78
2022/01/16 02:54:54;;;;;;;13.68;9.25;;;;;;;;;;5008750;28;20203;-75
2022/01/16 02:57:23;;;;;;;15.70;9.75;;;;;;;;;;4982007;28;20259;-78
2022/01/16 02:59:51;;;;;;;15.65;10.00;;;;;;;;;;5006806;28;20207;-77
2022/01/16 03:02:19;;;;;;;14.48;10.35;;;;;;;;;;5006564;28;20882;-78
2022/01/16 03:04:47;;;;;;;16.58;11.00;;;;;;;;;;5009057;28;20204;-77
2022/01/16 03:07:15;;;;;;;16.60;10.18;;;;;;;;;;5007895;28;20400;-79
2022/01/16 03:09:59;;;;;;;14.30;9.35;;;;;;;;;;5008478;28;20262;-75
2022/01/16 03:12:28;;;;;;;15.63;10.98;;;;;;;;;;4994068;28;20302;-74
2022/01/16 03:14:55;;;;;;;15.13;10.50;;;;;;;;;;5009459;28;20211;-77
2022/01/16 03:17:35;;;;;;;17.95;11.23;;;;;;;;;;5006276;28;20263;-75
2022/01/16 03:22:43;;;;;;;16.75;11.48;;;;;;;;;;5007472;28;20200;-78
2022/01/16 03:25:11;;;;;;;18.60;12.88;;;;;;;;;;5010549;28;20196;-76
2022/01/16 03:27:39;;;;;;;18.85;12.10;;;;;;;;;;5009457;28;20216;-76
2022/01/16 03:30:07;;;;;;;17.45;12.35;;;;;;;;;;5008565;28;20227;-77
2022/01/16 03:32:34;;;;;;;18.95;12.82;;;;;;;;;;5009314;28;20194;-75
2022/01/16 03:35:02;;;;;;;19.60;11.90;;;;;;;;;;5003977;28;20529;-75
2022/01/16 03:37:29;;;;;;;21.55;12.80;;;;;;;;;;5006906;28;20216;-76
2022/01/16 03:39:56;;;;;;;19.33;12.25;;;;;;;;;;5009744;28;20220;-77
2022/01/16 03:42:28;;;;;;;24.20;13.45;;;;;;;;;;5010237;28;20666;-76
2022/01/16 03:44:56;;;;;;;27.02;15.60;;;;;;;;;;5009010;28;20212;-79
2022/01/16 03:47:23;;;;;;;17.85;12.48;;;;;;;;;;5010229;28;20236;-76
2022/01/16 03:49:51;;;;;;;20.15;13.00;;;;;;;;;;5011975;28;20228;-77
2022/01/16 03:52:18;;;;;;;19.25;13.90;;;;;;;;;;5013820;28;20209;-78
2022/01/16 03:54:45;;;;;;;20.02;13.55;;;;;;;;;;4994823;28;20211;-76
2022/01/16 03:57:12;;;;;;;21.58;13.65;;;;;;;;;;5010950;28;20696;-75
2022/01/16 03:59:39;;;;;;;18.38;12.75;;;;;;;;;;5012322;28;20207;-77
2022/01/16 04:02:08;;;;;;;20.77;13.75;;;;;;;;;;5012566;28;20200;-75
2022/01/16 04:04:35;;;;;;;21.85;13.95;;;;;;;;;;4993094;28;20204;-77
2022/01/16 04:07:02;;;;;;;18.30;12.30;;;;;;;;;;5012452;28;20581;-76
2022/01/16 04:09:30;;;;;;;20.45;12.80;;;;;;;;;;5014192;28;20220;-76
2022/01/16 04:11:58;;;;;;;17.92;12.55;;;;;;;;;;5015449;28;20210;-75
2022/01/16 04:15:31;;;;;;;18.98;13.43;;;;;;;;;;5015329;28;20219;-76
2022/01/16 04:17:16;;;;;;;22.58;12.93;;;;;;;;;;4996232;28;20232;-75
2022/01/16 04:19:44;;;;;;;21.48;13.45;;;;;;;;;;4993649;28;20192;-77
2022/01/16 04:22:11;;;;;;;18.45;12.02;;;;;;;;;;4993295;28;20653;-77
2022/01/16 04:24:38;;;;;;;18.63;11.80;;;;;;;;;;5009905;28;20199;-75
2022/01/16 04:27:06;;;;;;;17.83;11.43;;;;;;;;;;5011507;28;20219;-75
2022/01/16 04:29:34;;;;;;;14.85;11.10;;;;;;;;;;5013133;28;20227;-75
2022/01/16 04:32:01;;;;;;;18.08;12.27;;;;;;;;;;5008564;28;20669;-74
2022/01/16 04:34:29;;;;;;;17.92;11.60;;;;;;;;;;5008756;28;20188;-76
2022/01/16 04:36:57;;;;;;;19.17;11.57;;;;;;;;;;5011280;28;20239;-77
2022/01/16 04:39:33;;;;;;;16.02;10.98;;;;;;;;;;4994222;28;20188;-77
2022/01/16 04:44:41;;;;;;;17.40;10.50;;;;;;;;;;5011830;28;20195;-78
2022/01/16 04:47:08;;;;;;;14.75;9.80;;;;;;;;;;5012291;28;20228;-77
2022/01/16 04:49:37;;;;;;;14.10;10.02;;;;;;;;;;5008635;28;21215;-77
2022/01/16 04:52:05;;;;;;;12.45;9.15;;;;;;;;;;4991831;28;20201;-76
2022/01/16 04:54:32;;;;;;;14.23;8.63;;;;;;;;;;5012019;28;20206;-76
2022/01/16 04:56:59;;;;;;;13.43;7.82;;;;;;;;;;5011574;28;20227;-77
2022/01/16 04:59:27;;;;;;;13.40;9.30;;;;;;;;;;5011839;28;20196;-76
2022/01/16 05:01:54;;;;;;;14.30;8.82;;;;;;;;;;5010378;28;20200;-77
2022/01/16 05:04:21;;;;;;;13.82;10.10;;;;;;;;;;5011804;28;20212;-75
2022/01/16 05:06:49;;;;;;;15.38;9.85;;;;;;;;;;5009437;28;20230;-77
2022/01/16 05:09:17;;;;;;;13.68;9.90;;;;;;;;;;5008625;28;20599;-77
2022/01/16 05:11:45;;;;;;;15.75;10.05;;;;;;;;;;5010002;28;20196;-76
2022/01/16 05:16:53;;;;;;;16.23;11.00;;;;;;;;;;5009515;28;20230;-76
2022/01/16 05:19:20;;;;;;;16.02;9.90;;;;;;;;;;5011015;28;20200;-77
2022/01/16 05:21:49;;;;;;;15.50;10.07;;;;;;;;;;5009597;28;20207;-75
2022/01/16 05:24:16;;;;;;;19.17;10.95;;;;;;;;;;5008737;28;20204;-76
2022/01/16 05:26:44;;;;;;;16.30;11.05;;;;;;;;;;5010062;28;20591;-76
2022/01/16 05:29:12;;;;;;;19.80;11.82;;;;;;;;;;4994085;28;20215;-77
2022/01/16 05:31:44;;;;;;;16.63;11.23;;;;;;;;;;5011357;28;20676;-76
2022/01/16 05:34:11;;;;;;;20.38;12.35;;;;;;;;;;5008460;28;20204;-75
2022/01/16 05:36:38;;;;;;;20.88;13.70;;;;;;;;;;5010274;28;20215;-76
2022/01/16 05:39:07;;;;;;;24.88;14.38;;;;;;;;;;5009361;28;20188;-77
2022/01/16 05:41:34;;;;;;;23.33;14.60;;;;;;;;;;5010426;28;20569;-79
2022/01/16 05:44:01;;;;;;;24.38;15.10;;;;;;;;;;5011906;28;20204;-77
2022/01/16 05:46:28;;;;;;;22.20;14.00;;;;;;;;;;5011687;28;20227;-76
2022/01/16 05:48:56;;;;;;;24.63;15.15;;;;;;;;;;5011798;28;20557;-75
2022/01/16 05:51:23;;;;;;;26.42;15.65;;;;;;;;;;5010200;28;20199;-78
2022/01/16 05:53:51;;;;;;;23.83;13.45;;;;;;;;;;4996173;28;20222;-77
2022/01/16 05:56:19;;;;;;;26.55;15.98;;;;;;;;;;5011205;28;20293;-78
2022/01/16 05:58:46;;;;;;;24.42;14.75;;;;;;;;;;5012309;28;20204;-79
2022/01/16 06:01:14;;;;;;;28.35;16.60;;;;;;;;;;5008392;28;20755;-78
2022/01/16 06:03:41;;;;;;;27.55;15.35;;;;;;;;;;5008980;28;20196;-79
2022/01/16 06:06:09;;;;;;;25.92;15.93;;;;;;;;;;5010906;28;20201;-80
2022/01/16 06:08:38;;;;;;;27.98;16.10;;;;;;;;;;5011089;28;20653;-78
2022/01/16 06:11:05;;;;;;;27.95;15.50;;;;;;;;;;5010523;28;20223;-77
2022/01/16 06:13:33;;;;;;;32.38;17.40;;;;;;;;;;4990419;28;20205;-76
2022/01/16 06:16:02;;;;;;;30.35;16.67;;;;;;;;;;4993365;28;20201;-79
2022/01/16 06:18:29;;;;;;;29.20;17.73;;;;;;;;;;5006558;28;20196;-77
2022/01/16 06:20:56;;;;;;;28.15;16.77;;;;;;;;;;5012385;28;20196;-78
2022/01/16 06:23:23;;;;;;;30.75;17.80;;;;;;;;;;5008216;28;20194;-77
2022/01/16 06:25:54;;;;;;;30.98;17.35;;;;;;;;;;5006665;28;20199;-77
2022/01/16 06:28:21;;;;;;;28.30;18.30;;;;;;;;;;5010479;28;20224;-78
2022/01/16 06:30:50;;;;;;;30.30;16.65;;;;;;;;;;5007275;28;20266;-77
2022/01/16 06:33:17;;;;;;;33.08;19.42;;;;;;;;;;5010596;28;20571;-76
2022/01/16 06:35:44;;;;;;;32.60;19.20;;;;;;;;;;5008940;28;20204;-77
2022/01/16 06:38:11;;;;;;;29.90;17.52;;;;;;;;;;5007370;28;20231;-79
2022/01/16 06:40:39;;;;;;;35.17;19.50;;;;;;;;;;5007133;28;20208;-81
2022/01/16 06:43:06;;;;;;;33.92;20.58;;;;;;;;;;5008450;28;20203;-76
2022/01/16 06:45:33;;;;;;;28.85;18.17;;;;;;;;;;5001460;28;20215;-80
2022/01/16 06:48:01;;;;;;;34.22;19.38;;;;;;;;;;5009750;28;20228;-80
2022/01/16 06:50:28;;;;;;;37.33;21.25;;;;;;;;;;5009624;28;20222;-76
2022/01/16 06:52:56;;;;;;;35.00;20.75;;;;;;;;;;5009912;28;20204;-76
2022/01/16 06:55:23;;;;;;;43.47;22.85;;;;;;;;;;5006389;28;20200;-79
2022/01/16 06:57:50;;;;;;;32.35;18.88;;;;;;;;;;5007238;28;20226;-77
2022/01/16 07:00:17;;;;;;;49.42;25.08;;;;;;;;;;5010419;28;20196;-76
2022/01/16 07:02:44;;;;;;;36.47;21.52;;;;;;;;;;5010141;28;20207;-76
2022/01/16 07:05:13;;;;;;;40.95;23.55;;;;;;;;;;5010335;28;20204;-77
2022/01/16 07:07:40;;;;;;;47.05;24.52;;;;;;;;;;5008657;28;20238;-81
2022/01/16 07:10:08;;;;;;;42.47;22.77;;;;;;;;;;5006761;28;20648;-76
2022/01/16 07:12:35;;;;;;;43.47;25.33;;;;;;;;;;4990516;28;20661;-78
2022/01/16 07:15:02;;;;;;;45.08;23.52;;;;;;;;;;5010121;28;20208;-77
2022/01/16 07:17:29;;;;;;;43.47;23.70;;;;;;;;;;5009961;28;20224;-78
2022/01/16 07:19:56;;;;;;;43.95;24.60;;;;;;;;;;5009011;28;20207;-77
2022/01/16 07:22:25;;;;;;;41.88;23.65;;;;;;;;;;5008886;28;20546;-78
2022/01/16 07:24:53;;;;;;;38.10;23.10;;;;;;;;;;5010289;28;20204;-76
2022/01/16 07:27:20;;;;;;;39.38;22.50;;;;;;;;;;5012040;28;20239;-78
2022/01/16 07:29:48;;;;;;;49.67;26.05;;;;;;;;;;5010931;28;20224;-77
2022/01/16 07:32:15;;;;;;;47.60;27.33;;;;;;;;;;4995516;28;20200;-81
2022/01/16 07:34:42;;;;;;;43.63;24.75;;;;;;;;;;5013678;28;20571;-79
2022/01/16 07:37:10;;;;;;;38.97;24.25;;;;;;;;;;5011637;28;20223;-77
2022/01/16 07:39:38;;;;;;;43.67;24.75;;;;;;;;;;5012370;28;20645;-77
2022/01/16 07:42:06;;;;;;;39.85;23.70;;;;;;;;;;5010692;28;20270;-78
2022/01/16 07:44:33;;;;;;;44.45;23.73;;;;;;;;;;5009991;28;20219;-78
2022/01/16 07:47:00;;;;;;;39.60;22.58;;;;;;;;;;5011515;28;20226;-79
2022/01/16 07:49:28;;;;;;;46.42;23.98;;;;;;;;;;5013192;28;20203;-78
2022/01/16 07:51:55;;;;;;;39.88;22.10;;;;;;;;;;5012204;28;20239;-77
2022/01/16 07:54:23;;;;;;;41.58;24.55;;;;;;;;;;5012397;28;20683;-75
2022/01/16 07:56:51;;;;;;;39.33;24.88;;;;;;;;;;5013567;28;20216;-78
2022/01/16 07:59:18;;;;;;;38.83;23.67;;;;;;;;;;5011569;28;20197;-80
2022/01/16 08:01:45;;;;;;;45.63;25.05;;;;;;;;;;5015016;28;20200;-78
2022/01/16 08:04:13;;;;;;;40.35;24.50;;;;;;;;;;5013324;28;20200;-76
2022/01/16 08:06:40;;;;;;;41.20;24.17;;;;;;;;;;5008721;28;20236;-78
2022/01/16 08:09:07;;;;;;;46.90;25.90;;;;;;;;;;5011894;28;20226;-78
2022/01/16 08:11:34;;;;;;;39.03;24.20;;;;;;;;;;5012144;28;20691;-78
2022/01/16 08:14:03;;;;;;;37.92;23.02;;;;;;;;;;5012052;28;20196;-76
2022/01/16 08:16:30;;;;;;;41.63;24.30;;;;;;;;;;5010213;28;20681;-77
2022/01/16 08:18:57;;;;;;;43.47;24.42;;;;;;;;;;5012253;28;20199;-74
2022/01/16 08:21:24;;;;;;;44.85;25.35;;;;;;;;;;4997115;28;20568;-76
2022/01/16 08:23:51;;;;;;;45.67;26.55;;;;;;;;;;4997374;28;20579;-75
2022/01/16 08:26:21;;;;;;;41.95;24.20;;;;;;;;;;5013184;28;20577;-75
2022/01/16 08:28:48;;;;;;;44.38;26.58;;;;;;;;;;5009638;28;20192;-76
2022/01/16 08:31:16;;;;;;;44.13;26.30;;;;;;;;;;5009965;28;20215;-77
2022/01/16 08:33:44;;;;;;;48.30;25.02;;;;;;;;;;4976534;28;20212;-77
2022/01/16 08:36:11;;;;;;;44.10;25.05;;;;;;;;;;4996875;28;20207;-78
2022/01/16 08:38:38;;;;;;;47.40;28.20;;;;;;;;;;5010183;28;20558;-75
2022/01/16 08:41:05;;;;;;;43.17;26.70;;;;;;;;;;5011056;28;20193;-74
2022/01/16 08:43:32;;;;;;;50.03;29.00;;;;;;;;;;5001323;28;20200;-75
2022/01/16 08:46:00;;;;;;;46.17;28.98;;;;;;;;;;5005876;28;20268;-76
2022/01/16 08:48:29;;;;;;;42.20;25.30;;;;;;;;;;5009144;28;20659;-75
2022/01/16 08:50:56;;;;;;;45.00;25.75;;;;;;;;;;5010478;28;20216;-78
2022/01/16 08:53:24;;;;;;;39.28;23.85;;;;;;;;;;4987757;28;20569;-75
2022/01/16 08:55:51;;;;;;;50.30;27.20;;;;;;;;;;5004676;28;20237;-77
2022/01/16 08:58:18;;;;;;;42.75;26.33;;;;;;;;;;5010205;28;20703;-74
2022/01/16 09:00:47;;;;;;;49.60;31.23;;;;;;;;;;5009905;28;20228;-75
2022/01/16 09:03:15;;;;;;;48.72;27.85;;;;;;;;;;5009041;28;20211;-77
2022/01/16 09:05:44;;;;;;;42.95;26.05;;;;;;;;;;5011229;28;20219;-76
2022/01/16 09:08:12;;;;;;;46.90;26.20;;;;;;;;;;4998382;28;20648;-75
2022/01/16 09:10:41;;;;;;;45.38;26.65;;;;;;;;;;5006352;28;22611;-76
2022/01/16 09:13:11;;;;;;;45.45;24.48;;;;;;;;;;5011853;28;20745;-76
2022/01/16 09:15:39;;;;;;;43.78;24.85;;;;;;;;;;5012542;28;20290;-76
2022/01/16 09:18:06;;;;;;;48.13;25.83;;;;;;;;;;5009435;28;20216;-77
2022/01/16 09:20:36;;;;;;;43.47;24.95;;;;;;;;;;5009081;28;20200;-75
2022/01/16 09:23:04;;;;;;;38.67;22.50;;;;;;;;;;4990316;28;20200;-76
2022/01/16 09:25:32;;;;;;;42.80;24.80;;;;;;;;;;4991585;28;20207;-88
2022/01/16 09:27:59;;;;;;;40.45;24.83;;;;;;;;;;4997435;28;20220;-79
2022/01/16 09:30:26;;;;;;;36.47;22.70;;;;;;;;;;5004275;28;20223;-77
2022/01/16 09:32:53;;;;;;;43.47;24.13;;;;;;;;;;4998632;28;20197;-78
2022/01/16 09:35:21;;;;;;;48.17;26.42;;;;;;;;;;5004649;28;20204;-76
2022/01/16 09:37:49;;;;;;;44.63;24.90;;;;;;;;;;5006853;28;20230;-75
2022/01/16 09:40:20;;;;;;;42.45;21.33;;;;;;;;;;4993170;28;20192;-74
2022/01/16 09:42:47;;;;;;;42.03;24.60;;;;;;;;;;5004870;28;20206;-77
2022/01/16 09:45:16;;;;;;;36.15;21.70;;;;;;;;;;5014765;28;20200;-75
2022/01/16 09:47:43;;;;;;;44.80;23.42;;;;;;;;;;4992027;28;20212;-77
2022/01/16 09:50:11;;;;;;;38.40;22.88;;;;;;;;;;4993714;28;20207;-73
2022/01/16 09:52:39;;;;;;;37.13;20.67;;;;;;;;;;5011085;28;20207;-77
2022/01/16 09:55:07;;;;;;;42.00;23.50;;;;;;;;;;5007647;28;20215;-77
2022/01/16 09:57:35;;;;;;;42.60;23.70;;;;;;;;;;5005142;28;20212;-75
2022/01/16 10:00:03;;;;;;;37.28;22.17;;;;;;;;;;5007286;28;20196;-78
2022/01/16 10:02:30;;;;;;;40.20;24.25;;;;;;;;;;5009371;28;20200;-76
2022/01/16 10:04:57;;;;;;;44.13;22.80;;;;;;;;;;5009493;28;20697;-76
2022/01/16 10:07:24;;;;;;;47.17;23.35;;;;;;;;;;5007191;28;20232;-76
2022/01/16 10:10:07;;;;;;;35.17;21.10;;;;;;;;;;5011130;28;20200;-77
2022/01/16 10:12:40;;;;;;;42.30;22.42;;;;;;;;;;5008084;28;20200;-79
2022/01/16 10:15:17;;;;;;;39.55;21.52;;;;;;;;;;5009061;28;20208;-76
2022/01/16 10:17:45;;;;;;;35.30;20.70;;;;;;;;;;5010561;28;20231;-77
2022/01/16 10:20:14;;;;;;;32.67;21.35;;;;;;;;;;5009434;28;20287;-81
2022/01/16 10:22:42;;;;;;;37.42;20.60;;;;;;;;;;5009459;28;20211;-76
2022/01/16 10:25:10;;;;;;;36.58;21.05;;;;;;;;;;4993265;28;20206;-81
2022/01/16 10:27:40;;;;;;;35.72;20.70;;;;;;;;;;5011107;28;20224;-80
2022/01/16 10:30:08;;;;;;;34.50;20.20;;;;;;;;;;5007170;28;20206;-80
2022/01/16 10:32:39;;;;;;;32.40;20.52;;;;;;;;;;5015026;28;20203;-75
2022/01/16 10:35:10;;;;;;;32.42;19.42;;;;;;;;;;5012768;28;20203;-77
2022/01/16 10:37:39;;;;;;;39.97;22.35;;;;;;;;;;5009766;28;20878;-75
2022/01/16 10:40:09;;;;;;;37.28;22.30;;;;;;;;;;5014537;28;20241;-76
2022/01/16 10:42:36;;;;;;;34.97;19.98;;;;;;;;;;4991399;28;20666;-75
2022/01/16 10:45:07;;;;;;;35.65;19.52;;;;;;;;;;5006306;28;20287;-77
2022/01/16 10:47:36;;;;;;;43.05;21.98;;;;;;;;;;5009224;28;20211;-81
2022/01/16 10:50:07;;;;;;;32.38;20.92;;;;;;;;;;4992393;28;20225;-75
2022/01/16 10:52:34;;;;;;;34.78;20.00;;;;;;;;;;5006696;28;20557;-77
2022/01/16 10:55:08;;;;;;;35.55;21.13;;;;;;;;;;4988982;28;20562;-80
2022/01/16 10:57:36;;;;;;;35.40;19.85;;;;;;;;;;5009704;28;20306;-79
2022/01/16 11:00:07;;;;;;;35.08;19.80;;;;;;;;;;5008376;28;20583;-77
2022/01/16 11:02:34;;;;;;;30.92;19.90;;;;;;;;;;4992135;28;20206;-74
2022/01/16 11:05:05;;;;;;;38.38;21.83;;;;;;;;;;5009982;28;20196;-76
2022/01/16 11:07:33;;;;;;;38.78;23.63;;;;;;;;;;5012216;28;20224;-76
2022/01/16 11:10:01;;;;;;;38.80;20.80;;;;;;;;;;5010862;28;20207;-75
2022/01/16 11:12:35;;;;;;;37.72;22.52;;;;;;;;;;5009514;28;20228;-76
2022/01/16 11:15:03;;;;;;;36.42;21.58;;;;;;;;;;5006651;28;20196;-77
2022/01/16 11:17:33;;;;;;;39.75;21.65;;;;;;;;;;4979927;28;20216;-75
2022/01/16 11:20:00;;;;;;;38.92;20.70;;;;;;;;;;4989323;28;20203;-76
2022/01/16 11:22:34;;;;;;;35.80;21.23;;;;;;;;;;4989433;28;20196;-77
2022/01/16 11:25:22;;;;;;;41.15;21.65;;;;;;;;;;4992955;28;20196;-76
2022/01/16 11:27:49;;;;;;;35.03;20.20;;;;;;;;;;5006732;28;20222;-77
2022/01/16 11:30:17;;;;;;;34.55;19.50;;;;;;;;;;5006051;28;20570;-78
2022/01/16 11:32:45;;;;;;;36.00;20.27;;;;;;;;;;5005945;28;20624;-80
2022/01/16 11:35:13;;;;;;;36.90;21.48;;;;;;;;;;4988249;28;20213;-80
2022/01/16 11:37:40;;;;;;;39.85;22.20;;;;;;;;;;4988937;28;20287;-77
2022/01/16 11:40:24;;;;;;;35.95;21.95;;;;;;;;;;4989967;28;20213;-78
2022/01/16 11:43:06;;;;;;;36.83;21.23;;;;;;;;;;4974386;28;20205;-76
2022/01/16 11:45:33;;;;;;;39.03;21.75;;;;;;;;;;4991631;28;20211;-76
2022/01/16 11:48:01;;;;;;;44.95;22.85;;;;;;;;;;5007893;28;20578;-75
2022/01/16 11:50:35;;;;;;;36.85;20.48;;;;;;;;;;5009759;28;20197;-76
2022/01/16 11:53:02;;;;;;;38.67;22.27;;;;;;;;;;5004980;28;20200;-76
2022/01/16 11:55:34;;;;;;;38.40;21.48;;;;;;;;;;5006858;28;20574;-75
2022/01/16 11:58:01;;;;;;;35.83;22.27;;;;;;;;;;5006581;28;20232;-76
2022/01/16 12:00:42;;;;;;;39.80;24.10;;;;;;;;;;4993007;28;20196;-77
2022/01/16 12:03:24;;;;;;;43.55;23.52;;;;;;;;;;4990807;28;20197;-77
2022/01/16 12:05:56;;;;;;;41.05;23.98;;;;;;;;;;4977787;28;20196;-78
2022/01/16 12:08:34;;;;;;;35.72;23.38;;;;;;;;;;5006955;28;20709;-76
2022/01/16 12:11:02;;;;;;;37.03;23.55;;;;;;;;;;5006746;28;20865;-77
2022/01/16 12:13:44;;;;;;;36.95;21.00;;;;;;;;;;5007076;28;20200;-77
2022/01/16 12:16:26;;;;;;;36.45;21.65;;;;;;;;;;4997823;28;20196;-78
2022/01/16 12:18:53;;;;;;;35.85;22.15;;;;;;;;;;5012508;28;20206;-77
2022/01/16 12:21:35;;;;;;;38.20;21.98;;;;;;;;;;5012310;28;20207;-78
2022/01/16 12:24:03;;;;;;;40.55;23.25;;;;;;;;;;4996348;28;20206;-77
2022/01/16 12:26:34;;;;;;;37.45;21.58;;;;;;;;;;5000360;28;20215;-78
2022/01/16 12:29:01;;;;;;;42.70;25.30;;;;;;;;;;4992998;28;20299;-77
2022/01/16 12:31:34;;;;;;;47.53;27.05;;;;;;;;;;5008278;28;20208;-78
2022/01/16 12:34:01;;;;;;;50.22;23.58;;;;;;;;;;5011873;28;20447;-77
2022/01/16 12:36:33;;;;;;;40.15;24.15;;;;;;;;;;4992164;28;20621;-76
2022/01/16 12:39:05;;;;;;;45.17;24.65;;;;;;;;;;4975062;28;20204;-78
2022/01/16 12:41:36;;;;;;;41.95;23.95;;;;;;;;;;4993379;28;20227;-78
2022/01/16 12:44:05;;;;;;;45.67;23.70;;;;;;;;;;5000572;28;20220;-78
2022/01/16 12:46:34;;;;;;;42.67;24.00;;;;;;;;;;4991880;28;20220;-78
2022/01/16 12:49:03;;;;;;;53.70;25.23;;;;;;;;;;4993304;28;20219;-78
2022/01/16 12:51:31;;;;;;;43.08;22.25;;;;;;;;;;4976650;28;20212;-78
2022/01/16 12:54:01;;;;;;;45.83;23.40;;;;;;;;;;4986772;28;20219;-77
2022/01/16 12:56:31;;;;;;;43.53;24.40;;;;;;;;;;4994698;28;20258;-78
2022/01/16 12:59:00;;;;;;;49.28;23.40;;;;;;;;;;5005977;28;20207;-77
2022/01/16 13:01:28;;;;;;;43.10;23.23;;;;;;;;;;4991602;28;20563;-75
2022/01/16 13:04:02;;;;;;;42.00;20.80;;;;;;;;;;5009514;28;20196;-78
2022/01/16 13:06:31;;;;;;;35.70;20.70;;;;;;;;;;5002216;28;20212;-77
2022/01/16 13:09:00;;;;;;;41.90;21.50;;;;;;;;;;4974412;28;20201;-75
2022/01/16 13:11:30;;;;;;;48.08;23.77;;;;;;;;;;4999778;28;20223;-76
2022/01/16 13:13:58;;;;;;;55.10;27.13;;;;;;;;;;5010905;28;20192;-76
2022/01/16 13:16:27;;;;;;;47.88;25.55;;;;;;;;;;5001005;28;20255;-77
2022/01/16 13:19:11;;;;;;;45.30;23.50;;;;;;;;;;4995152;28;20733;-76
2022/01/16 13:21:42;;;;;;;36.80;21.15;;;;;;;;;;4979743;28;20298;-77
2022/01/16 13:24:09;;;;;;;33.20;19.55;;;;;;;;;;5005822;28;20204;-77
2022/01/16 13:26:38;;;;;;;28.33;18.52;;;;;;;;;;5009837;28;20230;-77
2022/01/16 13:29:18;;;;;;;33.35;19.15;;;;;;;;;;5010970;28;20196;-76
2022/01/16 13:31:46;;;;;;;30.95;18.95;;;;;;;;;;4998581;28;20220;-78
2022/01/16 13:34:16;;;;;;;26.50;16.70;;;;;;;;;;5014055;28;20250;-76
2022/01/16 13:36:51;;;;;;;30.02;16.92;;;;;;;;;;5009029;28;20220;-76
2022/01/16 13:39:33;;;;;;;30.45;16.08;;;;;;;;;;5007170;28;20196;-78
2022/01/16 13:42:16;;;;;;;27.60;16.08;;;;;;;;;;4994968;28;20224;-77
2022/01/16 13:44:44;;;;;;;30.27;16.92;;;;;;;;;;4997643;28;20209;-79
2022/01/16 13:47:16;;;;;;;25.10;15.90;;;;;;;;;;5007392;28;20216;-77
2022/01/16 13:49:45;;;;;;;24.70;15.38;;;;;;;;;;5009628;28;20227;-77
2022/01/16 13:52:12;;;;;;;26.23;16.23;;;;;;;;;;5009881;28;20224;-77
2022/01/16 13:54:39;;;;;;;32.92;20.65;;;;;;;;;;5007531;28;20185;-76
2022/01/16 13:57:09;;;;;;;31.35;19.75;;;;;;;;;;5010779;28;20238;-77
2022/01/16 13:59:57;;;;;;;21.58;14.65;;;;;;;;;;5011557;28;20662;-75
2022/01/16 14:02:26;;;;;;;22.00;13.88;;;;;;;;;;5012806;28;20616;-80
2022/01/16 14:04:53;;;;;;;27.27;16.38;;;;;;;;;;5005758;28;20192;-77
2022/01/16 14:07:22;;;;;;;21.80;13.98;;;;;;;;;;5008791;28;20559;-75
2022/01/16 14:09:51;;;;;;;21.17;13.07;;;;;;;;;;5007731;28;20254;-79
2022/01/16 14:12:19;;;;;;;20.77;12.80;;;;;;;;;;4992220;28;20212;-75
2022/01/16 14:14:48;;;;;;;21.88;12.18;;;;;;;;;;5009527;28;20210;-78
2022/01/16 14:17:29;;;;;;;19.75;13.40;;;;;;;;;;4994205;28;20644;-78
2022/01/16 14:20:22;;;;;;;24.17;14.75;;;;;;;;;;5011422;28;20200;-82
2022/01/16 14:22:49;;;;;;;22.40;13.52;;;;;;;;;;4985294;28;20242;-76
2022/01/16 14:25:16;;;;;;;19.48;12.85;;;;;;;;;;5007995;28;20202;-76
2022/01/16 14:27:44;;;;;;;23.58;14.60;;;;;;;;;;5009510;28;20512;-78
2022/01/16 14:30:12;;;;;;;20.48;14.18;;;;;;;;;;5005899;28;20772;-78
2022/01/16 14:32:40;;;;;;;22.70;14.43;;;;;;;;;;5008948;28;20275;-78
2022/01/16 14:35:09;;;;;;;20.65;14.05;;;;;;;;;;4977611;28;20205;-80
2022/01/16 14:37:37;;;;;;;26.33;14.57;;;;;;;;;;4997034;28;20260;-77
2022/01/16 14:40:05;;;;;;;26.15;14.93;;;;;;;;;;5007465;28;20216;-76
2022/01/16 14:42:37;;;;;;;26.25;15.55;;;;;;;;;;5007135;28;20282;-77
2022/01/16 14:45:05;;;;;;;24.15;14.43;;;;;;;;;;4990071;28;20208;-79
2022/01/16 14:47:32;;;;;;;33.00;16.10;;;;;;;;;;5003062;28;20208;-77
2022/01/16 14:49:59;;;;;;;25.27;14.50;;;;;;;;;;5009425;28;20196;-79
2022/01/16 14:52:27;;;;;;;24.23;14.98;;;;;;;;;;5008995;28;20230;-75
2022/01/16 14:54:55;;;;;;;25.23;15.02;;;;;;;;;;5005296;28;20227;-80
2022/01/16 14:57:23;;;;;;;19.50;13.15;;;;;;;;;;5007643;28;20212;-78
2022/01/16 14:59:54;;;;;;;25.65;13.30;;;;;;;;;;4978255;28;20197;-79
2022/01/16 15:02:21;;;;;;;27.50;14.50;;;;;;;;;;4990084;28;20647;-81